createdAt,value
2022-09-02T00:01:47.160Z,21.30
2022-09-02T00:04:22.623Z,21.20
2022-09-02T00:06:55.014Z,21.20
2022-09-02T00:09:25.024Z,21.10
2022-09-02T00:11:54.150Z,21.10
2022-09-02T00:14:35.558Z,21.10
2022-09-02T00:17:06.376Z,21.10
2022-09-02T00:19:38.587Z,21.00
2022-09-02T00:22:07.929Z,21.00
2022-09-02T00:24:34.853Z,21.00
2022-09-02T00:27:02.754Z,21.00
2022-09-02T00:29:29.791Z,21.00
2022-09-02T00:31:57.576Z,20.90
2022-09-02T00:34:24.823Z,21.00
2022-09-02T00:36:56.825Z,21.00
2022-09-02T00:39:23.626Z,20.90
2022-09-02T00:41:50.595Z,20.90
2022-09-02T00:44:21.370Z,20.90
2022-09-02T00:46:51.408Z,20.90
2022-09-02T00:49:27.497Z,20.90
2022-09-02T00:52:14.975Z,20.80
2022-09-02T00:54:54.730Z,20.80
2022-09-02T00:57:34.574Z,20.80
2022-09-02T01:00:06.763Z,20.80
2022-09-02T01:02:42.072Z,20.80
2022-09-02T01:05:16.714Z,20.70
2022-09-02T01:07:45.226Z,20.70
2022-09-02T01:10:24.074Z,20.70
2022-09-02T01:12:57.889Z,20.70
2022-09-02T01:15:30.164Z,20.60
2022-09-02T01:17:58.568Z,20.60
2022-09-02T01:20:26.771Z,20.50
2022-09-02T01:22:55.601Z,20.50
2022-09-02T01:25:29.508Z,20.50
2022-09-02T01:28:12.354Z,20.40
2022-09-02T01:30:46.540Z,20.40
2022-09-02T01:33:16.756Z,20.40
2022-09-02T01:35:44.048Z,20.40
2022-09-02T01:38:11.197Z,20.40
2022-09-02T01:40:38.653Z,20.40
2022-09-02T01:43:17.285Z,20.40
2022-09-02T01:45:48.257Z,20.30
2022-09-02T01:48:21.324Z,20.30
2022-09-02T01:50:59.634Z,20.30
2022-09-02T01:53:30.580Z,20.30
2022-09-02T01:56:00.311Z,20.40
2022-09-02T01:58:27.086Z,20.40
2022-09-02T02:00:53.975Z,20.40
2022-09-02T02:03:21.223Z,20.40
2022-09-02T02:05:48.586Z,20.40
2022-09-02T02:08:16.089Z,20.40
2022-09-02T02:10:44.206Z,20.40
2022-09-02T02:13:11.735Z,20.30
2022-09-02T02:15:43.500Z,20.30
2022-09-02T02:18:12.865Z,20.30
2022-09-02T02:20:44.870Z,20.30
2022-09-02T02:23:14.197Z,20.40
2022-09-02T02:25:43.465Z,20.30
2022-09-02T02:28:16.653Z,20.40
2022-09-02T02:30:43.425Z,20.40
2022-09-02T02:33:13.278Z,20.30
2022-09-02T02:35:43.659Z,20.30
2022-09-02T02:38:10.508Z,20.30
2022-09-02T02:40:43.774Z,20.30
2022-09-02T02:43:15.183Z,20.30
2022-09-02T02:45:46.961Z,20.20
2022-09-02T02:48:18.781Z,20.20
2022-09-02T02:50:48.023Z,20.20
2022-09-02T02:53:17.701Z,20.20
2022-09-02T02:55:49.789Z,20.20
2022-09-02T02:58:17.672Z,20.10
2022-09-02T03:00:45.868Z,20.10
2022-09-02T03:03:19.933Z,20.10
2022-09-02T03:05:53.192Z,20.10
2022-09-02T03:08:25.880Z,20.10
2022-09-02T03:10:56.157Z,20.10
2022-09-02T03:13:24.771Z,20.10
2022-09-02T03:15:52.668Z,20.10
2022-09-02T03:18:24.189Z,20.10
2022-09-02T03:20:53.973Z,20.10
2022-09-02T03:23:20.796Z,20.10
2022-09-02T03:25:48.182Z,20.00
2022-09-02T03:28:15.933Z,20.00
2022-09-02T03:30:46.982Z,20.00
2022-09-02T03:33:16.297Z,20.00
2022-09-02T03:35:45.399Z,20.00
2022-09-02T03:38:15.140Z,20.00
2022-09-02T03:40:47.829Z,19.90
2022-09-02T03:43:17.384Z,19.90
2022-09-02T03:45:44.371Z,19.90
2022-09-02T03:48:14.500Z,19.90
2022-09-02T03:50:48.493Z,19.90
2022-09-02T03:53:18.178Z,19.90
2022-09-02T03:55:47.468Z,19.80
2022-09-02T03:58:19.183Z,19.80
2022-09-02T04:01:01.898Z,19.80
2022-09-02T04:03:29.200Z,19.80
2022-09-02T04:05:58.796Z,19.70
2022-09-02T04:08:27.267Z,19.70
2022-09-02T04:10:56.704Z,19.70
2022-09-02T04:13:23.755Z,19.60
2022-09-02T04:15:52.958Z,19.60
2022-09-02T04:19:34.702Z,19.60
2022-09-02T04:22:06.341Z,19.50
2022-09-02T04:24:33.472Z,19.50
2022-09-02T04:27:04.420Z,19.50
2022-09-02T04:29:35.924Z,19.40
2022-09-02T04:32:05.350Z,19.40
2022-09-02T04:34:34.395Z,19.40
2022-09-02T04:37:03.524Z,19.40
2022-09-02T04:39:30.348Z,19.40
2022-09-02T04:41:57.404Z,19.40
2022-09-02T04:44:28.683Z,19.40
2022-09-02T04:46:57.750Z,19.50
2022-09-02T04:49:32.669Z,19.40
2022-09-02T04:52:02.257Z,19.40
2022-09-02T04:54:33.573Z,19.40
2022-09-02T04:57:00.543Z,19.50
2022-09-02T04:59:32.122Z,19.40
2022-09-02T05:02:00.948Z,19.40
2022-09-02T05:04:31.489Z,19.40
2022-09-02T05:07:04.176Z,19.50
2022-09-02T05:09:34.665Z,19.40
2022-09-02T05:12:04.298Z,19.40
2022-09-02T05:14:36.429Z,19.50
2022-09-02T05:17:07.732Z,19.50
2022-09-02T05:19:37.629Z,19.50
2022-09-02T05:22:05.104Z,19.50
2022-09-02T05:24:31.897Z,19.60
2022-09-02T05:27:03.650Z,19.60
2022-09-02T05:29:32.731Z,19.60
2022-09-02T05:32:01.780Z,19.60
2022-09-02T05:34:33.363Z,19.70
2022-09-02T05:37:02.808Z,19.70
2022-09-02T05:39:30.892Z,19.80
2022-09-02T05:41:58.540Z,19.80
2022-09-02T05:44:31.288Z,19.80
2022-09-02T05:47:00.502Z,19.90
2022-09-02T05:49:29.745Z,19.90
2022-09-02T05:52:01.013Z,20.00
2022-09-02T05:54:32.134Z,20.00
2022-09-02T05:57:04.700Z,20.00
2022-09-02T05:59:40.145Z,20.10
2022-09-02T06:02:10.707Z,20.10
2022-09-02T06:04:43.388Z,20.20
2022-09-02T06:07:18.855Z,20.30
2022-09-02T06:09:46.229Z,20.30
2022-09-02T06:12:15.781Z,20.40
2022-09-02T06:14:44.879Z,20.40
2022-09-02T06:17:14.367Z,20.50
2022-09-02T06:19:44.333Z,20.50
2022-09-02T06:22:13.951Z,20.60
2022-09-02T06:24:43.398Z,20.60
2022-09-02T06:27:12.728Z,20.60
2022-09-02T06:29:39.884Z,20.70
2022-09-02T06:32:06.859Z,20.70
2022-09-02T06:34:35.180Z,20.70
2022-09-02T06:37:04.007Z,20.70
2022-09-02T06:39:30.860Z,20.80
2022-09-02T06:41:57.778Z,20.80
2022-09-02T06:44:24.886Z,20.90
2022-09-02T06:46:59.565Z,20.80
2022-09-02T06:49:29.915Z,20.90
2022-09-02T06:51:59.679Z,20.90
2022-09-02T06:54:29.785Z,20.90
2022-09-02T06:56:59.145Z,21.00
2022-09-02T06:59:30.852Z,21.00
2022-09-02T07:01:58.025Z,21.00
2022-09-02T07:04:45.794Z,21.00
2022-09-02T07:07:15.484Z,21.10
2022-09-02T07:09:42.332Z,21.10
2022-09-02T07:12:09.269Z,21.10
2022-09-02T07:14:42.807Z,21.20
2022-09-02T07:17:17.547Z,21.20
2022-09-02T07:19:45.133Z,21.20
2022-09-02T07:22:14.484Z,21.20
2022-09-02T07:24:45.807Z,21.20
2022-09-02T07:27:17.513Z,21.30
2022-09-02T07:29:45.843Z,21.30
2022-09-02T07:32:12.599Z,21.30
2022-09-02T07:34:39.360Z,21.30
2022-09-02T07:37:10.991Z,21.30
2022-09-02T07:39:41.053Z,21.40
2022-09-02T07:42:14.970Z,21.30
2022-09-02T07:44:44.566Z,21.40
2022-09-02T07:47:11.350Z,21.50
2022-09-02T07:52:32.896Z,21.60
2022-09-02T07:55:02.629Z,21.70
2022-09-02T07:57:29.520Z,21.70
2022-09-02T07:59:56.633Z,21.80
2022-09-02T08:02:23.532Z,21.90
2022-09-02T08:04:52.817Z,22.00
2022-09-02T08:07:24.931Z,22.00
2022-09-02T08:09:52.898Z,22.10
2022-09-02T08:12:22.350Z,22.10
2022-09-02T08:14:53.982Z,22.20
2022-09-02T08:17:25.453Z,22.20
2022-09-02T08:19:52.234Z,22.30
2022-09-02T08:22:19.485Z,22.40
2022-09-02T08:24:46.254Z,22.50
2022-09-02T08:27:15.648Z,22.50
2022-09-02T08:29:44.590Z,22.50
2022-09-02T08:32:13.798Z,22.60
2022-09-02T08:34:45.793Z,22.60
2022-09-02T08:37:13.130Z,22.70
2022-09-02T08:39:39.913Z,22.80
2022-09-02T08:42:43.135Z,22.90
2022-09-02T08:45:18.390Z,22.90
2022-09-02T08:47:53.445Z,23.00
2022-09-02T08:50:28.650Z,23.00
2022-09-02T08:53:27.506Z,23.10
2022-09-02T08:55:58.408Z,23.10
2022-09-02T08:58:39.355Z,23.30
2022-09-02T09:01:21.046Z,23.30
2022-09-02T09:04:24.593Z,23.40
2022-09-02T09:07:10.543Z,23.50
2022-09-02T09:10:02.981Z,23.60
2022-09-02T09:13:02.738Z,23.70
2022-09-02T09:16:08.347Z,23.80
2022-09-02T09:18:45.788Z,23.90
2022-09-02T09:21:14.545Z,24.00
2022-09-02T09:23:41.471Z,24.00
2022-09-02T09:26:26.456Z,24.10
2022-09-02T09:28:56.153Z,24.20
2022-09-02T09:31:31.065Z,24.30
2022-09-02T09:34:15.147Z,24.30
2022-09-02T09:36:44.044Z,24.40
2022-09-02T09:39:19.982Z,24.50
2022-09-02T09:41:52.095Z,24.60
2022-09-02T09:44:39.428Z,24.70
2022-09-02T09:47:27.061Z,24.70
2022-09-02T09:50:13.438Z,24.90
2022-09-02T09:52:40.350Z,24.90
2022-09-02T09:55:25.042Z,25.00
2022-09-02T09:57:54.072Z,25.10
2022-09-02T10:00:34.156Z,25.10
2022-09-02T10:03:19.401Z,25.20
2022-09-02T10:05:55.151Z,25.30
2022-09-02T10:08:28.839Z,25.40
2022-09-02T10:11:19.464Z,25.50
2022-09-02T10:13:51.113Z,25.60
2022-09-02T10:16:51.934Z,25.70
2022-09-02T10:19:34.344Z,25.80
2022-09-02T10:22:10.385Z,25.90
2022-09-02T10:25:21.494Z,25.90
2022-09-02T10:28:19.417Z,26.00
2022-09-02T10:31:31.104Z,26.10
2022-09-02T10:34:03.843Z,26.20
2022-09-02T10:36:58.683Z,26.30
2022-09-02T10:40:02.476Z,26.30
2022-09-02T10:43:02.552Z,26.30
2022-09-02T10:46:00.339Z,26.40
2022-09-02T10:48:54.590Z,26.40
2022-09-02T10:51:53.609Z,26.40
2022-09-02T10:55:37.955Z,26.50
2022-09-02T10:58:17.868Z,26.50
2022-09-02T11:00:51.937Z,26.60
2022-09-02T11:03:29.714Z,26.60
2022-09-02T11:06:14.057Z,26.70
2022-09-02T11:08:55.380Z,26.90
2022-09-02T11:11:41.044Z,27.10
2022-09-02T11:14:42.346Z,27.20
2022-09-02T11:17:23.704Z,27.40
2022-09-02T11:20:07.746Z,27.60
2022-09-02T11:22:45.094Z,27.80
2022-09-02T11:25:18.150Z,28.00
2022-09-02T11:28:19.045Z,28.20
2022-09-02T11:31:19.460Z,28.30
2022-09-02T11:34:20.932Z,28.50
2022-09-02T11:36:54.961Z,28.60
2022-09-02T11:39:56.533Z,28.80
2022-09-02T11:43:28.067Z,28.90
2022-09-02T11:46:56.494Z,29.00
2022-09-02T11:49:52.477Z,29.20
2022-09-02T11:53:01.092Z,29.40
2022-09-02T11:55:56.250Z,29.60
2022-09-02T11:58:42.533Z,29.70
2022-09-02T12:01:18.440Z,29.90
2022-09-02T12:07:10.285Z,30.10
2022-09-02T12:09:50.398Z,30.20
2022-09-02T12:12:39.090Z,30.30
2022-09-02T12:15:06.720Z,30.30
2022-09-02T12:17:40.563Z,30.30
2022-09-02T12:20:41.445Z,30.20
2022-09-02T12:23:10.923Z,30.20
2022-09-02T12:25:48.393Z,30.30
2022-09-02T12:28:35.815Z,30.40
2022-09-02T12:31:03.003Z,30.50
2022-09-02T12:33:44.261Z,30.70
2022-09-02T12:36:36.850Z,30.90
2022-09-02T12:39:25.541Z,31.10
2022-09-02T12:42:07.012Z,31.30
2022-09-02T12:45:13.945Z,31.40
2022-09-02T12:48:02.915Z,31.50
2022-09-02T12:50:50.775Z,31.60
2022-09-02T12:53:24.209Z,31.80
2022-09-02T12:56:06.336Z,32.00
2022-09-02T12:58:46.109Z,32.30
2022-09-02T13:01:24.398Z,32.60
2022-09-02T13:04:26.686Z,32.90
2022-09-02T13:07:33.258Z,33.20
2022-09-02T13:10:29.862Z,33.60
2022-09-02T13:13:24.249Z,33.70
2022-09-02T13:16:19.432Z,33.80
2022-09-02T13:19:12.919Z,33.80
2022-09-02T13:21:42.754Z,33.90
2022-09-02T13:24:52.786Z,33.90
2022-09-02T13:27:43.910Z,34.00
2022-09-02T13:30:19.643Z,34.30
2022-09-02T13:33:16.165Z,34.50
2022-09-02T13:35:46.213Z,34.90
2022-09-02T13:38:29.383Z,35.20
2022-09-02T13:40:59.409Z,35.50
2022-09-02T13:43:27.240Z,35.80
2022-09-02T13:46:01.131Z,36.10
2022-09-02T13:48:32.358Z,36.30
2022-09-02T13:51:13.805Z,36.60
2022-09-02T13:54:20.735Z,36.80
2022-09-02T13:56:38.471Z,37.20
2022-09-02T13:59:07.780Z,37.50
2022-09-02T14:01:39.821Z,37.70
2022-09-02T14:04:14.800Z,38.00
2022-09-02T14:06:46.844Z,38.20
2022-09-02T14:09:31.658Z,38.40
2022-09-02T14:12:02.509Z,38.60
2022-09-02T14:14:30.631Z,38.90
2022-09-02T14:17:29.088Z,39.00
2022-09-02T14:20:19.393Z,39.10
2022-09-02T14:23:07.707Z,39.20
2022-09-02T14:25:41.685Z,39.30
2022-09-02T14:28:24.295Z,39.30
2022-09-02T14:31:01.996Z,39.40
2022-09-02T14:33:44.864Z,39.50
2022-09-02T14:36:17.796Z,39.60
2022-09-02T14:38:49.625Z,39.60
2022-09-02T14:41:35.991Z,39.70
2022-09-02T14:44:32.292Z,39.70
2022-09-02T14:47:06.147Z,39.70
2022-09-02T14:49:39.824Z,39.70
2022-09-02T14:52:27.540Z,39.70
2022-09-02T14:54:58.324Z,39.50
2022-09-02T14:57:35.859Z,39.50
2022-09-02T15:00:14.084Z,39.50
2022-09-02T15:02:46.356Z,39.50
2022-09-02T15:05:14.822Z,39.50
2022-09-02T15:07:46.069Z,39.40
2022-09-02T15:10:15.188Z,39.40
2022-09-02T15:12:49.556Z,39.40
2022-09-02T15:15:17.196Z,39.30
2022-09-02T15:17:46.555Z,39.30
2022-09-02T15:20:13.822Z,39.10
2022-09-02T15:22:40.808Z,38.90
2022-09-02T15:25:09.537Z,38.70
2022-09-02T15:27:37.045Z,38.60
2022-09-02T15:30:09.441Z,38.40
2022-09-02T15:32:38.099Z,38.30
2022-09-02T15:35:11.636Z,38.20
2022-09-02T15:37:39.585Z,38.20
2022-09-02T15:40:12.537Z,38.20
2022-09-02T15:42:42.147Z,38.20
2022-09-02T15:45:12.172Z,38.20
2022-09-02T15:47:45.226Z,38.20
2022-09-02T15:50:12.202Z,38.10
2022-09-02T15:52:41.363Z,37.90
2022-09-02T15:55:08.443Z,37.90
2022-09-02T15:57:35.303Z,37.80
2022-09-02T16:00:06.152Z,37.90
2022-09-02T16:02:36.932Z,37.90
2022-09-02T16:05:04.464Z,37.80
2022-09-02T16:07:33.693Z,37.70
2022-09-02T16:10:03.554Z,37.50
2022-09-02T16:12:31.564Z,37.20
2022-09-02T16:15:00.892Z,36.80
2022-09-02T16:17:30.341Z,36.40
2022-09-02T16:20:00.673Z,36.00
2022-09-02T16:22:32.373Z,35.60
2022-09-02T16:24:59.832Z,35.20
2022-09-02T16:27:54.727Z,34.90
2022-09-02T16:30:26.457Z,34.70
2022-09-02T16:32:54.536Z,34.50
2022-09-02T16:35:24.220Z,34.40
2022-09-02T16:37:57.487Z,34.20
2022-09-02T16:40:25.593Z,34.20
2022-09-02T16:43:00.291Z,34.00
2022-09-02T16:45:35.902Z,33.80
2022-09-02T16:48:04.488Z,33.60
2022-09-02T16:50:36.512Z,33.30
2022-09-02T16:53:11.524Z,33.00
2022-09-02T16:55:47.111Z,32.80
2022-09-02T16:58:16.676Z,32.50
2022-09-02T17:00:47.310Z,32.20
2022-09-02T17:03:17.783Z,32.00
2022-09-02T17:05:49.088Z,31.70
2022-09-02T17:08:17.211Z,31.40
2022-09-02T17:10:44.099Z,31.20
2022-09-02T17:13:13.365Z,30.90
2022-09-02T17:15:40.170Z,30.70
2022-09-02T17:18:07.184Z,30.40
2022-09-02T17:20:36.712Z,30.20
2022-09-02T17:23:05.833Z,30.00
2022-09-02T17:25:34.906Z,29.80
2022-09-02T17:28:04.123Z,29.60
2022-09-02T17:30:31.089Z,29.40
2022-09-02T17:33:00.970Z,29.20
2022-09-02T17:35:30.281Z,29.00
2022-09-02T17:38:00.270Z,28.90
2022-09-02T17:40:45.563Z,28.70
2022-09-02T17:43:13.528Z,28.50
2022-09-02T17:45:46.818Z,28.30
2022-09-02T17:48:35.668Z,28.20
2022-09-02T17:51:08.356Z,28.10
2022-09-02T17:53:39.825Z,27.90
2022-09-02T17:56:21.966Z,27.80
2022-09-02T17:59:19.333Z,27.70
2022-09-02T18:02:01.139Z,27.60
2022-09-02T18:05:03.153Z,27.40
2022-09-02T18:07:42.965Z,27.20
2022-09-02T18:10:14.837Z,27.10
2022-09-02T18:12:46.943Z,27.00
2022-09-02T18:15:18.880Z,26.90
2022-09-02T18:17:53.445Z,26.80
2022-09-02T18:20:43.631Z,26.70
2022-09-02T18:23:34.648Z,26.60
2022-09-02T18:26:48.010Z,26.50
2022-09-02T18:29:41.528Z,26.30
2022-09-02T18:32:30.722Z,26.20
2022-09-02T18:35:33.580Z,26.10
2022-09-02T18:38:38.636Z,26.00
2022-09-02T18:41:48.931Z,25.90
2022-09-02T18:44:41.567Z,25.80
2022-09-02T18:47:28.592Z,25.70
2022-09-02T18:50:04.069Z,25.60
2022-09-02T18:52:36.279Z,25.50
2022-09-02T18:55:13.751Z,25.40
2022-09-02T18:57:51.372Z,25.30
2022-09-02T19:00:22.781Z,25.30
2022-09-02T19:03:05.976Z,25.20
2022-09-02T19:05:37.980Z,25.10
2022-09-02T19:08:30.693Z,25.10
2022-09-02T19:11:15.250Z,25.00
2022-09-02T19:13:53.141Z,24.90
2022-09-02T19:16:29.407Z,24.90
2022-09-02T19:18:58.479Z,24.80
2022-09-02T19:21:45.151Z,24.80
2022-09-02T19:24:39.994Z,24.70
2022-09-02T19:27:18.986Z,24.60
2022-09-02T19:29:56.922Z,24.50
2022-09-02T19:32:31.462Z,24.50
2022-09-02T19:35:02.863Z,24.40
2022-09-02T19:37:30.223Z,24.40
2022-09-02T19:40:09.143Z,24.30
2022-09-02T19:42:38.714Z,24.30
2022-09-02T19:45:07.832Z,24.30
2022-09-02T19:50:29.724Z,24.20
2022-09-02T19:52:56.720Z,24.20
2022-09-02T19:55:33.812Z,24.10
2022-09-02T19:58:09.576Z,24.10
2022-09-02T20:00:39.652Z,24.00
2022-09-02T20:03:09.104Z,24.00
2022-09-02T20:05:38.720Z,24.00
2022-09-02T20:08:08.987Z,23.90
2022-09-02T20:10:42.319Z,23.90
2022-09-02T20:13:14.484Z,23.80
2022-09-02T20:15:43.917Z,23.80
2022-09-02T20:18:16.184Z,23.80
2022-09-02T20:20:48.469Z,23.70
2022-09-02T20:23:20.334Z,23.70
2022-09-02T20:26:01.328Z,23.70
2022-09-02T20:29:02.875Z,23.60
2022-09-02T20:31:52.548Z,23.60
2022-09-02T20:34:31.793Z,23.60
2022-09-02T20:37:28.050Z,23.50
2022-09-02T20:40:20.105Z,23.50
2022-09-02T20:43:43.597Z,23.40
2022-09-02T20:47:05.895Z,23.40
2022-09-02T20:49:54.651Z,23.30
2022-09-02T20:53:14.323Z,23.30
2022-09-02T20:56:24.277Z,23.20
2022-09-02T20:59:25.203Z,23.20
2022-09-02T21:02:01.866Z,23.20
2022-09-02T21:04:45.565Z,23.10
2022-09-02T21:07:42.641Z,23.10
2022-09-02T21:10:34.866Z,23.00
2022-09-02T21:13:29.761Z,23.00
2022-09-02T21:16:13.555Z,23.00
2022-09-02T21:19:20.070Z,22.90
2022-09-02T21:22:04.519Z,22.90
2022-09-02T21:24:51.280Z,22.90
2022-09-02T21:27:46.787Z,22.80
2022-09-02T21:30:24.351Z,22.80
2022-09-02T21:33:15.219Z,22.70
2022-09-02T21:35:53.947Z,22.70
2022-09-02T21:38:24.914Z,22.70
2022-09-02T21:41:20.889Z,22.60
2022-09-02T21:44:02.239Z,22.60
2022-09-02T21:47:01.741Z,22.50
2022-09-02T21:49:44.046Z,22.40
2022-09-02T21:52:26.175Z,22.40
2022-09-02T21:55:44.699Z,22.40
2022-09-02T21:58:44.946Z,22.30
2022-09-02T22:01:44.825Z,22.20
2022-09-02T22:04:36.375Z,22.20
2022-09-02T22:07:20.201Z,22.10
2022-09-02T22:10:36.608Z,22.10
2022-09-02T22:13:07.664Z,22.00
2022-09-02T22:15:59.687Z,21.90
2022-09-02T22:19:01.735Z,21.90
2022-09-02T22:21:58.817Z,21.80
2022-09-02T22:24:31.301Z,21.70
2022-09-02T22:27:33.247Z,21.60
2022-09-02T22:30:11.523Z,21.60
2022-09-02T22:32:47.352Z,21.50
2022-09-02T22:35:56.585Z,21.40
2022-09-02T22:38:41.923Z,21.40
2022-09-02T22:41:33.772Z,21.30
2022-09-02T22:44:13.274Z,21.20
2022-09-02T22:47:14.711Z,21.10
2022-09-02T22:50:11.544Z,21.10
2022-09-02T22:52:57.023Z,21.00
2022-09-02T22:55:57.367Z,20.90
2022-09-02T22:59:02.045Z,20.80
2022-09-02T23:01:54.819Z,20.80
2022-09-02T23:04:51.998Z,20.70
2022-09-02T23:07:24.456Z,20.70
2022-09-02T23:10:01.345Z,20.60
2022-09-02T23:12:44.092Z,20.60
2022-09-02T23:15:14.495Z,20.50
2022-09-02T23:18:14.264Z,20.40
2022-09-02T23:21:02.065Z,20.40
2022-09-02T23:23:59.224Z,20.30
2022-09-02T23:26:58.238Z,20.30
2022-09-02T23:29:32.515Z,20.20
2022-09-02T23:32:23.576Z,20.10
2022-09-02T23:35:11.776Z,20.10
2022-09-02T23:38:19.971Z,20.10
2022-09-02T23:41:10.313Z,20.00
2022-09-02T23:43:40.028Z,19.90
2022-09-02T23:47:05.281Z,19.90
2022-09-02T23:50:25.961Z,19.90
2022-09-02T23:53:11.380Z,19.80
2022-09-02T23:56:05.194Z,19.80
2022-09-02T23:59:15.684Z,19.70
